createdAt,value
2019-05-12T00:00:44.721Z,101178.24
2019-05-12T00:03:13.815Z,101179.44
2019-05-12T00:05:43.134Z,101184.67
2019-05-12T00:08:12.252Z,101198.27
2019-05-12T00:10:41.499Z,101195.17
2019-05-12T00:13:10.609Z,101201.29
2019-05-12T00:15:39.744Z,101206.55
2019-05-12T00:18:09.381Z,101208.33
2019-05-12T00:20:38.840Z,101205.23
2019-05-12T00:23:23.322Z,101201.62
2019-05-12T00:25:38.957Z,101198.94
2019-05-12T00:28:08.071Z,101205.94
2019-05-12T00:30:48.708Z,101213.80
2019-05-12T00:33:18.180Z,100841.66
2019-05-12T00:35:48.599Z,101218.60
2019-05-12T00:38:17.839Z,101222.52
2019-05-12T00:40:47.877Z,101228.14
2019-05-12T00:43:18.854Z,101240.44
2019-05-12T00:45:48.348Z,101245.70
2019-05-12T00:48:17.964Z,101249.61
2019-05-12T00:50:48.608Z,101257.05
2019-05-12T00:53:18.845Z,101266.61
2019-05-12T00:55:48.167Z,101256.91
2019-05-12T00:58:19.616Z,101253.82
2019-05-12T01:00:59.455Z,101260.36
2019-05-12T01:03:28.011Z,101255.10
2019-05-12T01:05:57.755Z,101263.42
2019-05-12T01:08:28.019Z,101261.64
2019-05-12T01:10:58.271Z,101274.33
2019-05-12T01:13:28.072Z,101267.76
2019-05-12T01:15:58.710Z,101274.72
2019-05-12T01:18:28.139Z,101270.71
2019-05-12T01:20:58.378Z,101286.03
2019-05-12T01:23:28.248Z,101279.42
2019-05-12T01:25:58.484Z,100949.47
2019-05-12T01:28:28.019Z,101281.02
2019-05-12T01:30:58.786Z,101287.95
2019-05-12T01:33:28.035Z,101290.58
2019-05-12T01:35:58.625Z,101293.67
2019-05-12T01:38:28.793Z,101296.69
2019-05-12T01:40:58.515Z,101301.48
2019-05-12T01:43:29.008Z,101302.77
2019-05-12T01:45:58.915Z,101314.09
2019-05-12T01:48:28.698Z,101313.62
2019-05-12T01:50:58.102Z,101315.37
2019-05-12T01:53:28.689Z,101328.09
2019-05-12T01:55:58.543Z,101338.64
2019-05-12T01:58:27.956Z,101344.28
2019-05-12T02:00:58.847Z,101342.00
2019-05-12T02:03:28.466Z,101352.02
2019-05-12T02:05:58.796Z,101352.41
2019-05-12T02:08:33.924Z,101358.98
2019-05-12T02:11:21.050Z,101364.16
2019-05-12T02:13:50.234Z,101364.92
2019-05-12T02:16:19.354Z,101366.11
2019-05-12T02:18:49.156Z,101375.31
2019-05-12T02:21:19.046Z,101370.95
2019-05-12T02:23:48.410Z,101378.33
2019-05-12T02:26:18.938Z,101384.43
2019-05-12T02:28:48.210Z,101386.98
2019-05-12T02:31:20.597Z,101398.34
2019-05-12T02:33:48.234Z,101403.20
2019-05-12T02:36:17.403Z,101409.36
2019-05-12T02:38:46.538Z,101410.71
2019-05-12T02:41:15.842Z,101413.72
2019-05-12T02:43:45.896Z,101413.59
2019-05-12T02:46:15.839Z,101420.08
2019-05-12T02:48:45.221Z,101419.58
2019-05-12T02:51:15.660Z,101421.30
2019-05-12T02:53:47.062Z,101436.60
2019-05-12T02:56:17.674Z,101431.34
2019-05-12T02:58:49.116Z,101432.95
2019-05-12T03:01:19.967Z,101442.48
2019-05-12T03:03:54.692Z,101441.05
2019-05-12T03:06:25.218Z,101448.03
2019-05-12T03:08:57.330Z,101445.88
2019-05-12T03:11:28.703Z,101447.98
2019-05-12T03:13:57.930Z,101208.78
2019-05-12T03:16:27.049Z,101451.66
2019-05-12T03:18:56.282Z,101454.66
2019-05-12T03:21:25.401Z,101455.55
2019-05-12T03:23:55.249Z,101466.05
2019-05-12T03:26:24.977Z,101463.85
2019-05-12T03:28:55.576Z,101461.65
2019-05-12T03:31:30.985Z,101464.74
2019-05-12T03:34:00.014Z,101468.63
2019-05-12T03:36:33.120Z,101469.91
2019-05-12T03:38:57.529Z,101473.80
2019-05-12T03:41:26.850Z,101483.36
2019-05-12T03:43:55.997Z,101489.79
2019-05-12T03:46:25.144Z,101491.80
2019-05-12T03:48:55.334Z,101496.11
2019-05-12T03:51:25.335Z,101492.92
2019-05-12T03:53:55.700Z,101502.44
2019-05-12T03:56:26.173Z,101514.04
2019-05-12T03:58:55.488Z,101518.72
2019-05-12T04:01:25.818Z,101524.72
2019-05-12T04:03:55.189Z,101528.55
2019-05-12T04:06:24.874Z,101528.41
2019-05-12T04:08:56.025Z,101531.03
2019-05-12T04:11:25.270Z,101534.17
2019-05-12T04:13:55.186Z,101552.64
2019-05-12T04:16:24.988Z,101551.33
2019-05-12T04:18:55.185Z,101556.53
2019-05-12T04:21:24.766Z,101558.63
2019-05-12T04:23:54.757Z,101560.77
2019-05-12T04:26:25.332Z,101567.28
2019-05-12T04:28:55.007Z,101570.44
2019-05-12T04:31:25.027Z,101572.64
2019-05-12T04:33:54.942Z,101569.97
2019-05-12T04:36:24.940Z,101576.04
2019-05-12T04:38:55.599Z,101578.24
2019-05-12T04:41:26.179Z,101577.84
2019-05-12T04:43:55.493Z,101604.76
2019-05-12T04:46:25.407Z,101586.12
2019-05-12T04:48:54.858Z,101586.43
2019-05-12T04:51:25.968Z,101588.46
2019-05-12T04:53:55.082Z,101593.06
2019-05-12T04:56:25.140Z,101592.85
2019-05-12T04:58:54.811Z,101589.16
2019-05-12T05:01:25.437Z,101587.16
2019-05-12T05:03:54.782Z,101591.80
2019-05-12T05:06:25.429Z,101595.08
2019-05-12T05:08:54.831Z,101602.69
2019-05-12T05:11:25.001Z,101605.08
2019-05-12T05:13:55.031Z,101609.58
2019-05-12T05:16:24.978Z,101615.88
2019-05-12T05:18:54.385Z,101621.70
2019-05-12T05:21:24.143Z,101626.66
2019-05-12T05:23:53.741Z,101629.90
2019-05-12T05:26:27.850Z,101637.46
2019-05-12T05:28:54.343Z,101639.80
2019-05-12T05:31:24.318Z,101645.33
2019-05-12T05:33:53.795Z,101649.41
2019-05-12T05:36:25.016Z,101643.02
2019-05-12T05:38:57.344Z,101650.70
2019-05-12T05:41:24.780Z,101650.92
2019-05-12T05:43:58.347Z,101659.95
2019-05-12T05:46:25.233Z,101663.70
2019-05-12T05:48:54.346Z,101660.84
2019-05-12T05:51:23.889Z,101666.19
2019-05-12T05:53:54.476Z,101670.73
2019-05-12T05:56:38.347Z,101673.06
2019-05-12T05:58:54.732Z,101676.02
2019-05-12T06:01:24.687Z,101675.87
2019-05-12T06:03:58.294Z,101684.94
2019-05-12T06:06:24.938Z,101682.03
2019-05-12T06:08:58.246Z,101684.85
2019-05-12T06:11:28.546Z,101685.44
2019-05-12T06:14:03.194Z,101685.61
2019-05-12T06:16:28.750Z,101693.28
2019-05-12T06:18:57.884Z,101683.91
2019-05-12T06:21:29.015Z,101696.88
2019-05-12T06:23:57.829Z,101697.94
2019-05-12T06:26:32.471Z,101691.92
2019-05-12T06:28:57.958Z,101688.22
2019-05-12T06:31:29.818Z,101691.88
2019-05-12T06:33:57.982Z,101698.28
2019-05-12T06:36:27.482Z,101708.20
2019-05-12T06:38:56.630Z,101704.11
2019-05-12T06:41:25.997Z,101702.39
2019-05-12T06:43:55.264Z,101708.10
2019-05-12T06:46:25.894Z,101712.84
2019-05-12T06:48:55.156Z,101711.54
2019-05-12T06:51:25.902Z,101719.95
2019-05-12T06:53:55.536Z,101717.77
2019-05-12T06:56:25.142Z,101721.77
2019-05-12T06:58:54.293Z,101724.01
2019-05-12T07:01:24.180Z,101728.67
2019-05-12T07:03:53.580Z,101739.91
2019-05-12T07:06:24.701Z,101743.48
2019-05-12T07:09:05.344Z,101744.84
2019-05-12T07:11:25.124Z,101754.09
2019-05-12T07:14:02.100Z,101748.69
2019-05-12T07:16:30.018Z,101754.00
2019-05-12T07:18:56.754Z,101761.17
2019-05-12T07:21:27.328Z,101769.73
2019-05-12T07:24:00.446Z,101774.53
2019-05-12T07:26:27.625Z,101778.55
2019-05-12T07:28:56.894Z,101783.88
2019-05-12T07:31:26.451Z,101782.63
2019-05-12T07:33:55.749Z,101772.28
2019-05-12T07:36:25.378Z,101780.89
2019-05-12T07:39:04.154Z,101792.08
2019-05-12T07:41:29.263Z,101789.53
2019-05-12T07:44:01.018Z,101789.23
2019-05-12T07:46:31.433Z,101796.45
2019-05-12T07:49:00.555Z,101796.44
2019-05-12T07:51:30.493Z,101794.31
2019-05-12T07:54:04.116Z,101795.50
2019-05-12T07:56:35.880Z,101802.12
2019-05-12T07:59:04.645Z,101803.96
2019-05-12T08:01:35.824Z,101803.52
2019-05-12T08:04:04.759Z,101799.06
2019-05-12T08:06:41.783Z,101802.19
2019-05-12T08:09:09.086Z,101800.88
2019-05-12T08:11:39.112Z,101803.97
2019-05-12T08:14:13.664Z,101808.83
2019-05-12T08:16:39.363Z,101810.00
2019-05-12T08:19:08.811Z,101814.38
2019-05-12T08:21:43.772Z,101804.13
2019-05-12T08:24:10.473Z,101801.00
2019-05-12T08:26:39.624Z,101794.84
2019-05-12T08:29:10.405Z,101787.91
2019-05-12T08:31:40.857Z,101786.62
2019-05-12T08:34:10.018Z,101789.78
2019-05-12T08:36:39.187Z,101792.98
2019-05-12T08:39:17.427Z,101788.98
2019-05-12T08:41:39.745Z,101783.21
2019-05-12T08:44:08.883Z,101792.53
2019-05-12T08:46:43.237Z,101794.70
2019-05-12T08:49:08.933Z,101793.33
2019-05-12T08:51:38.523Z,101781.91
2019-05-12T08:54:08.280Z,101785.86
2019-05-12T08:56:37.520Z,101783.59
2019-05-12T08:59:09.694Z,101792.97
2019-05-12T09:01:37.643Z,101802.29
2019-05-12T09:04:13.144Z,101804.92
2019-05-12T09:06:38.015Z,101815.07
2019-05-12T09:09:08.205Z,101811.08
2019-05-12T09:11:37.394Z,101809.28
2019-05-12T09:14:06.504Z,101824.28
2019-05-12T09:16:35.711Z,101820.56
2019-05-12T09:19:05.110Z,101822.00
2019-05-12T09:21:37.139Z,101813.19
2019-05-12T09:24:06.346Z,101813.72
2019-05-12T09:26:35.480Z,101805.38
2019-05-12T09:29:07.333Z,101812.91
2019-05-12T09:31:35.583Z,101821.34
2019-05-12T09:34:11.492Z,101718.80
2019-05-12T09:36:35.818Z,101823.56
2019-05-12T09:39:07.694Z,101823.55
2019-05-12T09:41:42.351Z,101827.94
2019-05-12T09:44:07.714Z,101834.61
2019-05-12T09:46:37.741Z,101824.03
2019-05-12T09:49:07.026Z,101821.33
2019-05-12T09:51:41.492Z,101829.72
2019-05-12T09:54:07.042Z,101833.72
2019-05-12T09:56:36.159Z,101838.22
2019-05-12T09:59:17.141Z,101838.20
2019-05-12T10:01:39.475Z,101827.58
2019-05-12T10:04:10.453Z,101832.44
2019-05-12T10:06:37.840Z,101831.56
2019-05-12T10:09:08.826Z,101836.89
2019-05-12T10:11:38.146Z,101839.53
2019-05-12T10:14:10.732Z,101839.56
2019-05-12T10:16:39.459Z,101845.75
2019-05-12T10:19:09.070Z,101847.53
2019-05-12T10:21:38.228Z,101853.73
2019-05-12T10:24:07.300Z,101860.84
2019-05-12T10:26:41.205Z,101858.60
2019-05-12T10:29:17.446Z,101859.05
2019-05-12T10:31:39.334Z,101856.86
2019-05-12T10:34:20.575Z,101858.16
2019-05-12T10:36:50.434Z,101853.25
2019-05-12T10:39:19.750Z,101850.13
2019-05-12T10:41:48.926Z,101848.34
2019-05-12T10:44:18.183Z,101854.58
2019-05-12T10:46:50.273Z,101867.91
2019-05-12T10:49:19.430Z,101867.45
2019-05-12T10:51:48.588Z,101878.14
2019-05-12T10:54:17.791Z,101876.81
2019-05-12T10:56:46.973Z,101872.38
2019-05-12T10:59:28.866Z,101875.91
2019-05-12T11:01:48.991Z,101861.24
2019-05-12T11:04:25.142Z,101861.68
2019-05-12T11:06:48.657Z,101866.95
2019-05-12T11:09:21.359Z,101870.87
2019-05-12T11:11:48.611Z,101875.19
2019-05-12T11:14:20.184Z,101873.91
2019-05-12T11:16:48.629Z,101872.21
2019-05-12T11:19:17.763Z,101878.42
2019-05-12T11:21:46.891Z,101878.43
2019-05-12T11:24:16.049Z,101880.21
2019-05-12T11:26:45.183Z,101873.44
2019-05-12T11:29:14.343Z,101874.16
2019-05-12T11:31:44.140Z,101865.56
2019-05-12T11:34:13.428Z,101875.34
2019-05-12T11:36:43.830Z,101879.88
2019-05-12T11:39:14.257Z,101880.42
2019-05-12T11:41:44.238Z,101875.13
2019-05-12T11:44:13.717Z,101875.08
2019-05-12T11:46:44.209Z,101877.71
2019-05-12T11:49:13.928Z,101880.94
2019-05-12T11:51:43.157Z,101880.90
2019-05-12T11:54:13.684Z,101885.70
2019-05-12T11:56:46.470Z,101869.65
2019-05-12T11:59:14.608Z,101869.14
2019-05-12T12:01:48.051Z,101873.40
2019-05-12T12:04:15.265Z,101871.47
2019-05-12T12:06:44.566Z,101880.33
2019-05-12T12:09:17.062Z,101875.64
2019-05-12T12:11:44.525Z,101877.53
2019-05-12T12:14:14.263Z,101884.17
2019-05-12T12:16:49.924Z,101881.89
2019-05-12T12:19:14.595Z,101884.48
2019-05-12T12:21:47.998Z,101889.70
2019-05-12T12:24:14.639Z,101885.16
2019-05-12T12:26:44.556Z,101886.88
2019-05-12T12:29:13.890Z,101890.97
2019-05-12T12:31:50.712Z,101889.64
2019-05-12T12:34:29.348Z,101885.98
2019-05-12T12:36:50.871Z,101898.34
2019-05-12T12:39:20.029Z,101893.83
2019-05-12T12:41:58.363Z,101905.95
2019-05-12T12:44:20.187Z,101916.84
2019-05-12T12:46:51.254Z,101921.50
2019-05-12T12:49:20.170Z,101922.04
2019-05-12T12:51:49.365Z,101928.39
2019-05-12T12:54:18.619Z,101931.56
2019-05-12T12:56:47.761Z,101944.06
2019-05-12T12:59:16.890Z,101939.23
2019-05-12T13:01:46.023Z,101933.96
2019-05-12T13:04:15.344Z,101938.42
2019-05-12T13:06:44.474Z,101938.91
2019-05-12T13:09:23.987Z,101946.03
2019-05-12T13:11:47.783Z,101942.47
2019-05-12T13:14:17.195Z,101954.50
2019-05-12T13:16:49.349Z,101957.61
2019-05-12T13:19:17.361Z,101949.17
2019-05-12T13:21:46.434Z,101952.69
2019-05-12T13:24:15.567Z,101945.53
2019-05-12T13:26:44.732Z,101947.69
2019-05-12T13:29:13.958Z,101943.69
2019-05-12T13:31:46.348Z,101949.84
2019-05-12T13:34:14.361Z,101948.47
2019-05-12T13:36:44.159Z,101960.88
2019-05-12T13:39:16.356Z,101952.35
2019-05-12T13:41:44.420Z,101960.73
2019-05-12T13:44:13.881Z,101964.85
2019-05-12T13:46:43.748Z,101965.23
2019-05-12T13:49:14.218Z,101969.69
2019-05-12T13:51:48.466Z,101979.47
2019-05-12T13:54:14.518Z,101991.05
2019-05-12T13:56:44.382Z,101987.13
2019-05-12T13:59:20.559Z,101986.28
2019-05-12T14:01:45.802Z,101994.36
2019-05-12T14:04:15.045Z,101989.03
2019-05-12T14:06:44.165Z,101998.81
2019-05-12T14:09:13.736Z,101994.41
2019-05-12T14:11:43.741Z,102004.19
2019-05-12T14:14:15.325Z,102004.67
2019-05-12T14:16:52.539Z,102008.66
2019-05-12T14:19:14.754Z,102002.47
2019-05-12T14:21:43.910Z,102003.34
2019-05-12T14:24:13.979Z,102005.56
2019-05-12T14:26:45.370Z,102005.55
2019-05-12T14:29:14.128Z,102006.87
2019-05-12T14:31:50.992Z,102007.75
2019-05-12T14:34:18.905Z,101998.88
2019-05-12T14:36:45.030Z,102001.97
2019-05-12T14:39:14.224Z,102005.53
2019-05-12T14:41:53.064Z,102009.51
2019-05-12T14:44:14.230Z,102008.19
2019-05-12T14:46:46.247Z,102007.31
2019-05-12T14:49:14.334Z,102005.56
2019-05-12T14:51:44.304Z,102000.67
2019-05-12T14:54:13.977Z,102003.78
2019-05-12T14:56:44.797Z,102000.19
2019-05-12T14:59:14.570Z,101993.08
2019-05-12T15:01:53.594Z,102004.63
2019-05-12T15:04:19.519Z,102002.38
2019-05-12T15:06:45.407Z,102009.43
2019-05-12T15:09:19.678Z,102011.20
2019-05-12T15:11:45.395Z,102007.13
2019-05-12T15:14:14.510Z,102011.59
2019-05-12T15:16:44.866Z,102012.93
2019-05-12T15:19:14.166Z,102012.02
2019-05-12T15:21:43.823Z,102018.72
2019-05-12T15:24:15.499Z,102013.83
2019-05-12T15:26:43.888Z,102010.27
2019-05-12T15:29:19.617Z,102009.84
2019-05-12T15:31:53.428Z,102012.02
2019-05-12T15:34:14.767Z,102011.14
2019-05-12T15:36:52.286Z,102006.75
2019-05-12T15:39:14.750Z,102018.31
2019-05-12T15:41:43.917Z,102019.64
2019-05-12T15:44:14.501Z,101933.58
2019-05-12T15:46:50.202Z,102024.98
2019-05-12T15:49:19.405Z,102035.66
2019-05-12T15:51:54.078Z,102032.16
2019-05-12T15:54:19.559Z,102052.64
2019-05-12T15:56:48.727Z,102052.66
2019-05-12T15:59:17.901Z,102044.66
2019-05-12T16:01:47.109Z,102043.77
2019-05-12T16:04:16.316Z,102043.32
2019-05-12T16:06:53.581Z,102044.21
2019-05-12T16:09:16.506Z,102041.09
2019-05-12T16:11:45.707Z,102043.76
2019-05-12T16:14:14.872Z,102039.76
2019-05-12T16:16:46.807Z,102049.11
2019-05-12T16:19:14.861Z,102049.10
2019-05-12T16:21:45.634Z,102048.20
2019-05-12T16:24:15.683Z,102042.87
2019-05-12T16:26:51.853Z,102047.75
2019-05-12T16:29:15.795Z,102048.17
2019-05-12T16:31:49.646Z,102058.38
2019-05-12T16:34:15.971Z,102047.72
2019-05-12T16:36:49.831Z,102057.93
2019-05-12T16:39:15.974Z,102053.93
2019-05-12T16:41:45.107Z,102055.25
2019-05-12T16:44:21.449Z,102060.14
2019-05-12T16:46:45.167Z,102055.68
2019-05-12T16:49:14.327Z,102067.65
2019-05-12T16:51:43.838Z,102061.86
2019-05-12T16:54:13.146Z,102062.33
2019-05-12T16:56:43.344Z,102064.53
2019-05-12T16:59:16.850Z,102064.07
2019-05-12T17:01:43.986Z,102059.61
2019-05-12T17:04:13.525Z,102061.81
2019-05-12T17:06:45.290Z,102070.66
2019-05-12T17:09:13.766Z,102067.98
2019-05-12T17:11:47.234Z,102071.09
2019-05-12T17:14:13.843Z,102068.00
2019-05-12T17:16:46.565Z,102066.24
2019-05-12T17:19:15.472Z,102072.89
2019-05-12T17:21:49.591Z,102076.01
2019-05-12T17:24:15.662Z,102079.98
2019-05-12T17:26:44.810Z,102082.17
2019-05-12T17:29:14.008Z,102087.91
2019-05-12T17:31:44.441Z,102087.02
2019-05-12T17:34:14.322Z,102083.81
2019-05-12T17:36:44.912Z,102089.55
2019-05-12T17:39:14.396Z,102092.17
2019-05-12T17:41:45.669Z,101937.81
2019-05-12T17:44:14.490Z,102101.02
2019-05-12T17:46:44.234Z,102103.23
2019-05-12T17:49:17.686Z,102107.22
2019-05-12T17:51:44.336Z,102114.66
2019-05-12T17:54:21.692Z,102112.00
2019-05-12T17:56:44.356Z,102121.27
2019-05-12T17:59:14.891Z,102115.87
2019-05-12T18:01:44.414Z,102126.45
2019-05-12T18:04:14.062Z,102124.56
2019-05-12T18:06:44.176Z,102126.77
2019-05-12T18:09:15.673Z,102125.81
2019-05-12T18:11:46.073Z,102136.83
2019-05-12T18:14:15.792Z,102143.40
2019-05-12T18:16:44.928Z,102144.23
2019-05-12T18:19:17.739Z,102149.89
2019-05-12T18:21:45.204Z,102155.58
2019-05-12T18:24:14.423Z,102153.30
2019-05-12T18:26:48.767Z,102156.75
2019-05-12T18:29:14.816Z,102158.02
2019-05-12T18:31:43.971Z,102164.53
2019-05-12T18:34:13.902Z,102172.42
2019-05-12T18:36:43.187Z,102179.03
2019-05-12T18:39:15.039Z,102183.32
2019-05-12T18:41:43.884Z,102181.88
2019-05-12T18:44:15.924Z,102187.13
2019-05-12T18:46:45.291Z,102199.86
2019-05-12T18:49:16.006Z,102190.05
2019-05-12T18:51:48.962Z,102196.14
2019-05-12T18:54:16.323Z,102196.53
2019-05-12T18:56:45.487Z,102203.50
2019-05-12T18:59:16.390Z,102207.80
2019-05-12T19:01:45.543Z,102211.28
2019-05-12T19:04:14.681Z,102210.27
2019-05-12T19:06:44.131Z,102027.78
2019-05-12T19:09:13.837Z,102212.28
2019-05-12T19:11:46.431Z,102219.25
2019-05-12T19:14:13.908Z,102219.14
2019-05-12T19:16:43.617Z,102226.08
2019-05-12T19:19:16.449Z,102234.38
2019-05-12T19:21:46.783Z,102237.73
2019-05-12T19:24:19.736Z,102239.34
2019-05-12T19:26:46.557Z,102241.80
2019-05-12T19:29:15.943Z,102239.95
2019-05-12T19:31:51.900Z,102245.55
2019-05-12T19:34:22.538Z,102240.58
2019-05-12T19:36:49.499Z,102247.92
2019-05-12T19:39:17.769Z,102249.61
2019-05-12T19:41:46.945Z,102251.69
2019-05-12T19:44:20.045Z,102257.74
2019-05-12T19:46:49.492Z,102266.39
2019-05-12T19:49:20.208Z,102263.64
2019-05-12T19:51:48.728Z,102270.19
2019-05-12T19:54:19.439Z,102271.01
2019-05-12T19:56:48.811Z,102277.16
2019-05-12T19:59:17.968Z,102277.01
2019-05-12T20:01:47.112Z,102282.66
2019-05-12T20:04:29.746Z,102275.03
2019-05-12T20:06:47.151Z,102280.64
2019-05-12T20:09:16.332Z,102284.02
2019-05-12T20:11:45.532Z,102283.44
2019-05-12T20:14:19.733Z,102285.97
2019-05-12T20:16:45.512Z,102286.78
2019-05-12T20:19:14.667Z,102293.27
2019-05-12T20:21:44.016Z,102297.97
2019-05-12T20:24:14.356Z,102302.66
2019-05-12T20:26:44.024Z,102304.33
2019-05-12T20:29:13.901Z,102311.70
2019-05-12T20:31:48.064Z,102319.13
2019-05-12T20:34:14.031Z,102317.76
2019-05-12T20:36:44.522Z,102321.59
2019-05-12T20:39:17.133Z,102324.53
2019-05-12T20:41:44.716Z,102327.48
2019-05-12T20:44:17.336Z,102329.59
2019-05-12T20:46:44.742Z,102334.33
2019-05-12T20:49:14.963Z,102339.48
2019-05-12T20:51:44.462Z,102341.00
2019-05-12T20:54:18.114Z,102347.47
2019-05-12T20:56:45.907Z,102346.91
2019-05-12T20:59:21.854Z,102344.17
2019-05-12T21:01:45.899Z,102348.05
2019-05-12T21:04:15.008Z,102352.29
2019-05-12T21:06:44.147Z,102353.45
2019-05-12T21:09:14.351Z,102359.97
2019-05-12T21:11:44.242Z,102360.16
2019-05-12T21:14:14.606Z,102189.92
2019-05-12T21:16:44.876Z,102368.61
2019-05-12T21:19:14.452Z,102368.00
2019-05-12T21:21:44.363Z,102371.80
2019-05-12T21:24:14.133Z,102373.86
2019-05-12T21:26:44.029Z,102375.50
2019-05-12T21:29:13.877Z,102377.41
2019-05-12T21:31:44.542Z,102382.80
2019-05-12T21:34:21.068Z,102380.42
2019-05-12T21:36:44.904Z,102387.76
2019-05-12T21:39:14.179Z,102389.74
2019-05-12T21:41:47.398Z,102387.64
2019-05-12T21:44:14.295Z,102392.14
2019-05-12T21:46:46.961Z,102391.77
2019-05-12T21:49:15.544Z,102390.09
2019-05-12T21:51:44.966Z,102405.63
2019-05-12T21:54:14.114Z,102403.48
2019-05-12T21:56:48.004Z,102409.36
2019-05-12T21:59:15.597Z,102410.92
2019-05-12T22:01:45.903Z,102413.24
2019-05-12T22:04:15.392Z,102417.34
2019-05-12T22:06:44.653Z,102416.97
2019-05-12T22:09:14.753Z,102427.25
2019-05-12T22:11:51.032Z,102421.33
2019-05-12T22:14:15.434Z,102427.70
2019-05-12T22:16:47.007Z,102138.84
2019-05-12T22:19:16.165Z,102431.88
2019-05-12T22:21:49.385Z,102435.97
2019-05-12T22:24:16.116Z,102425.96
2019-05-12T22:26:46.646Z,102436.72
2019-05-12T22:29:15.967Z,102436.11
2019-05-12T22:31:48.211Z,102445.80
2019-05-12T22:34:15.984Z,102442.97
2019-05-12T22:36:54.639Z,102441.17
2019-05-12T22:39:16.100Z,102448.70
2019-05-12T22:41:45.228Z,102445.88
2019-05-12T22:44:18.345Z,102446.71
2019-05-12T22:46:45.447Z,102445.13
2019-05-12T22:49:16.751Z,102446.15
2019-05-12T22:51:46.544Z,102449.55
2019-05-12T22:54:15.828Z,102447.33
2019-05-12T22:56:49.611Z,102451.76
2019-05-12T22:59:15.835Z,102453.91
2019-05-12T23:01:46.826Z,102456.12
2019-05-12T23:04:15.829Z,102455.08
2019-05-12T23:06:46.820Z,102461.10
2019-05-12T23:09:19.360Z,102464.81
2019-05-12T23:11:46.744Z,102459.28
2019-05-12T23:14:20.557Z,102462.81
2019-05-12T23:16:46.861Z,102461.73
2019-05-12T23:19:15.999Z,102467.34
2019-05-12T23:21:49.385Z,102467.34
2019-05-12T23:24:18.163Z,102467.34
2019-05-12T23:26:47.952Z,102470.63
2019-05-12T23:29:20.383Z,102468.55
2019-05-12T23:31:48.241Z,102469.52
2019-05-12T23:34:17.422Z,102463.92
2019-05-12T23:36:50.475Z,102463.64
2019-05-12T23:39:17.415Z,102469.79
2019-05-12T23:41:46.533Z,102474.36
2019-05-12T23:44:15.661Z,102471.73
2019-05-12T23:46:44.789Z,102473.39
2019-05-12T23:49:14.460Z,102472.91
2019-05-12T23:51:43.942Z,102470.83
2019-05-12T23:54:14.385Z,102467.72
2019-05-12T23:56:44.434Z,102462.46
2019-05-12T23:59:13.848Z,102458.45
